sensor_id;sensor_type;location;lat;lon;timestamp;temperature;humidity
82788;DHT22;72529;51.786;4.662;2023-12-04T00:01:35;3.72;77.44
82788;DHT22;72529;51.786;4.662;2023-12-04T00:04:01;3.69;77.95
82788;DHT22;72529;51.786;4.662;2023-12-04T00:06:26;3.64;78.05
82788;DHT22;72529;51.786;4.662;2023-12-04T00:08:52;3.58;77.79
82788;DHT22;72529;51.786;4.662;2023-12-04T00:11:17;3.61;78.56
82788;DHT22;72529;51.786;4.662;2023-12-04T00:13:43;3.65;77.53
82788;DHT22;72529;51.786;4.662;2023-12-04T00:16:08;3.67;78.04
82788;DHT22;72529;51.786;4.662;2023-12-04T00:18:34;3.71;78.29
82788;DHT22;72529;51.786;4.662;2023-12-04T00:20:59;3.71;78.06
82788;DHT22;72529;51.786;4.662;2023-12-04T00:23:25;3.67;77.58
82788;DHT22;72529;51.786;4.662;2023-12-04T00:25:50;3.67;77.71
82788;DHT22;72529;51.786;4.662;2023-12-04T00:28:16;3.62;78.02
82788;DHT22;72529;51.786;4.662;2023-12-04T00:30:42;3.57;77.85
82788;DHT22;72529;51.786;4.662;2023-12-04T00:33:07;3.71;77.70
82788;DHT22;72529;51.786;4.662;2023-12-04T00:35:32;3.71;77.94
82788;DHT22;72529;51.786;4.662;2023-12-04T00:37:58;3.74;77.12
82788;DHT22;72529;51.786;4.662;2023-12-04T00:40:23;3.68;77.67
82788;DHT22;72529;51.786;4.662;2023-12-04T00:42:49;3.69;77.92
82788;DHT22;72529;51.786;4.662;2023-12-04T00:45:14;3.74;77.44
82788;DHT22;72529;51.786;4.662;2023-12-04T00:47:40;3.79;76.87
82788;DHT22;72529;51.786;4.662;2023-12-04T00:50:06;3.78;76.73
82788;DHT22;72529;51.786;4.662;2023-12-04T00:52:31;3.68;77.25
82788;DHT22;72529;51.786;4.662;2023-12-04T00:54:57;3.72;77.34
82788;DHT22;72529;51.786;4.662;2023-12-04T00:57:22;3.79;77.30
82788;DHT22;72529;51.786;4.662;2023-12-04T00:59:48;3.88;76.91
82788;DHT22;72529;51.786;4.662;2023-12-04T01:02:13;3.82;76.94
82788;DHT22;72529;51.786;4.662;2023-12-04T01:04:42;3.81;77.34
82788;DHT22;72529;51.786;4.662;2023-12-04T01:07:07;3.83;77.11
82788;DHT22;72529;51.786;4.662;2023-12-04T01:09:36;3.82;77.22
82788;DHT22;72529;51.786;4.662;2023-12-04T01:12:02;3.86;77.43
82788;DHT22;72529;51.786;4.662;2023-12-04T01:14:28;3.90;76.06
82788;DHT22;72529;51.786;4.662;2023-12-04T01:16:53;3.85;76.80
82788;DHT22;72529;51.786;4.662;2023-12-04T01:19:19;3.88;76.13
82788;DHT22;72529;51.786;4.662;2023-12-04T01:21:44;3.88;76.64
82788;DHT22;72529;51.786;4.662;2023-12-04T01:24:10;3.88;76.61
82788;DHT22;72529;51.786;4.662;2023-12-04T01:26:36;3.88;76.33
82788;DHT22;72529;51.786;4.662;2023-12-04T01:29:01;3.90;76.42
82788;DHT22;72529;51.786;4.662;2023-12-04T01:31:27;3.95;76.47
82788;DHT22;72529;51.786;4.662;2023-12-04T01:33:52;3.95;76.39
82788;DHT22;72529;51.786;4.662;2023-12-04T01:36:18;4.00;75.60
82788;DHT22;72529;51.786;4.662;2023-12-04T01:38:43;4.12;75.45
82788;DHT22;72529;51.786;4.662;2023-12-04T01:41:09;4.00;75.04
82788;DHT22;72529;51.786;4.662;2023-12-04T01:43:34;4.00;75.76
82788;DHT22;72529;51.786;4.662;2023-12-04T01:46:01;4.03;76.04
82788;DHT22;72529;51.786;4.662;2023-12-04T01:48:28;3.99;75.71
82788;DHT22;72529;51.786;4.662;2023-12-04T01:50:55;3.92;75.82
82788;DHT22;72529;51.786;4.662;2023-12-04T01:53:23;3.93;75.73
82788;DHT22;72529;51.786;4.662;2023-12-04T01:55:49;3.92;75.70
82788;DHT22;72529;51.786;4.662;2023-12-04T01:58:15;3.95;75.73
82788;DHT22;72529;51.786;4.662;2023-12-04T02:00:41;3.95;76.17
82788;DHT22;72529;51.786;4.662;2023-12-04T02:03:08;3.92;75.69
82788;DHT22;72529;51.786;4.662;2023-12-04T02:05:34;3.90;76.13
82788;DHT22;72529;51.786;4.662;2023-12-04T02:08:01;3.96;75.64
82788;DHT22;72529;51.786;4.662;2023-12-04T02:10:27;3.88;75.50
82788;DHT22;72529;51.786;4.662;2023-12-04T02:12:52;3.89;76.11
82788;DHT22;72529;51.786;4.662;2023-12-04T02:15:18;3.92;75.32
82788;DHT22;72529;51.786;4.662;2023-12-04T02:17:44;4.00;74.69
82788;DHT22;72529;51.786;4.662;2023-12-04T02:20:12;3.86;75.38
82788;DHT22;72529;51.786;4.662;2023-12-04T02:22:38;3.89;75.01
82788;DHT22;72529;51.786;4.662;2023-12-04T02:25:04;3.85;74.10
82788;DHT22;72529;51.786;4.662;2023-12-04T02:27:49;3.85;74.43
82788;DHT22;72529;51.786;4.662;2023-12-04T02:30:18;3.88;74.24
82788;DHT22;72529;51.786;4.662;2023-12-04T02:32:46;3.89;73.96
82788;DHT22;72529;51.786;4.662;2023-12-04T02:35:14;3.95;74.15
82788;DHT22;72529;51.786;4.662;2023-12-04T02:37:41;3.99;74.49
82788;DHT22;72529;51.786;4.662;2023-12-04T02:40:07;3.90;72.78
82788;DHT22;72529;51.786;4.662;2023-12-04T02:42:33;3.96;73.88
82788;DHT22;72529;51.786;4.662;2023-12-04T02:44:59;3.90;74.20
82788;DHT22;72529;51.786;4.662;2023-12-04T02:47:24;3.92;74.28
82788;DHT22;72529;51.786;4.662;2023-12-04T02:49:50;3.89;74.23
82788;DHT22;72529;51.786;4.662;2023-12-04T02:52:16;3.89;74.27
82788;DHT22;72529;51.786;4.662;2023-12-04T02:54:41;3.88;74.05
82788;DHT22;72529;51.786;4.662;2023-12-04T02:57:07;3.90;73.57
82788;DHT22;72529;51.786;4.662;2023-12-04T02:59:32;3.95;73.27
82788;DHT22;72529;51.786;4.662;2023-12-04T03:01:58;4.02;73.09
82788;DHT22;72529;51.786;4.662;2023-12-04T03:04:23;4.00;72.99
82788;DHT22;72529;51.786;4.662;2023-12-04T03:06:48;4.05;73.01
82788;DHT22;72529;51.786;4.662;2023-12-04T03:09:14;4.07;72.66
82788;DHT22;72529;51.786;4.662;2023-12-04T03:11:40;4.06;72.23
82788;DHT22;72529;51.786;4.662;2023-12-04T03:14:06;4.09;72.28
82788;DHT22;72529;51.786;4.662;2023-12-04T03:16:32;4.03;72.46
82788;DHT22;72529;51.786;4.662;2023-12-04T03:18:57;3.98;72.81
82788;DHT22;72529;51.786;4.662;2023-12-04T03:21:23;4.00;72.87
82788;DHT22;72529;51.786;4.662;2023-12-04T03:23:48;4.03;73.14
82788;DHT22;72529;51.786;4.662;2023-12-04T03:26:14;3.98;73.17
82788;DHT22;72529;51.786;4.662;2023-12-04T03:28:39;4.02;72.32
82788;DHT22;72529;51.786;4.662;2023-12-04T03:31:08;4.03;72.24
82788;DHT22;72529;51.786;4.662;2023-12-04T03:33:33;3.98;72.76
82788;DHT22;72529;51.786;4.662;2023-12-04T03:35:59;3.99;73.11
82788;DHT22;72529;51.786;4.662;2023-12-04T03:38:25;3.93;72.35
82788;DHT22;72529;51.786;4.662;2023-12-04T03:40:50;3.92;72.07
82788;DHT22;72529;51.786;4.662;2023-12-04T03:43:16;3.93;71.82
82788;DHT22;72529;51.786;4.662;2023-12-04T03:45:41;3.96;72.81
82788;DHT22;72529;51.786;4.662;2023-12-04T03:48:06;3.93;72.37
82788;DHT22;72529;51.786;4.662;2023-12-04T03:50:32;4.00;72.53
82788;DHT22;72529;51.786;4.662;2023-12-04T03:52:57;3.96;72.40
82788;DHT22;72529;51.786;4.662;2023-12-04T03:55:23;3.92;72.24
82788;DHT22;72529;51.786;4.662;2023-12-04T03:57:48;3.89;71.80
82788;DHT22;72529;51.786;4.662;2023-12-04T04:00:14;3.93;71.92
82788;DHT22;72529;51.786;4.662;2023-12-04T04:02:41;3.99;72.13
82788;DHT22;72529;51.786;4.662;2023-12-04T04:05:06;4.00;70.90
82788;DHT22;72529;51.786;4.662;2023-12-04T04:07:32;4.07;70.86
82788;DHT22;72529;51.786;4.662;2023-12-04T04:09:57;4.02;71.50
82788;DHT22;72529;51.786;4.662;2023-12-04T04:12:23;4.07;71.24
82788;DHT22;72529;51.786;4.662;2023-12-04T04:14:48;4.03;71.08
82788;DHT22;72529;51.786;4.662;2023-12-04T04:17:14;4.06;70.98
82788;DHT22;72529;51.786;4.662;2023-12-04T04:19:41;4.05;71.02
82788;DHT22;72529;51.786;4.662;2023-12-04T04:22:06;3.98;71.17
82788;DHT22;72529;51.786;4.662;2023-12-04T04:24:32;3.99;71.69
82788;DHT22;72529;51.786;4.662;2023-12-04T04:26:57;4.05;70.59
82788;DHT22;72529;51.786;4.662;2023-12-04T04:29:22;3.99;71.05
82788;DHT22;72529;51.786;4.662;2023-12-04T04:31:48;4.00;71.53
82788;DHT22;72529;51.786;4.662;2023-12-04T04:34:13;3.99;72.05
82788;DHT22;72529;51.786;4.662;2023-12-04T04:36:39;4.03;71.71
82788;DHT22;72529;51.786;4.662;2023-12-04T04:39:04;4.05;71.58
82788;DHT22;72529;51.786;4.662;2023-12-04T04:41:31;3.96;72.29
82788;DHT22;72529;51.786;4.662;2023-12-04T04:43:57;3.96;71.76
82788;DHT22;72529;51.786;4.662;2023-12-04T04:46:22;3.88;72.19
82788;DHT22;72529;51.786;4.662;2023-12-04T04:48:47;3.90;72.25
82788;DHT22;72529;51.786;4.662;2023-12-04T04:51:13;3.89;72.59
82788;DHT22;72529;51.786;4.662;2023-12-04T04:53:38;3.90;72.51
82788;DHT22;72529;51.786;4.662;2023-12-04T04:56:04;3.85;72.29
82788;DHT22;72529;51.786;4.662;2023-12-04T04:58:30;3.89;72.38
82788;DHT22;72529;51.786;4.662;2023-12-04T05:00:55;3.93;71.94
82788;DHT22;72529;51.786;4.662;2023-12-04T05:03:21;3.90;72.52
82788;DHT22;72529;51.786;4.662;2023-12-04T05:05:46;3.89;71.84
82788;DHT22;72529;51.786;4.662;2023-12-04T05:08:12;3.90;72.37
82788;DHT22;72529;51.786;4.662;2023-12-04T05:10:38;3.95;71.55
82788;DHT22;72529;51.786;4.662;2023-12-04T05:13:04;3.90;71.84
82788;DHT22;72529;51.786;4.662;2023-12-04T05:15:29;3.90;72.61
82788;DHT22;72529;51.786;4.662;2023-12-04T05:17:55;3.95;72.63
82788;DHT22;72529;51.786;4.662;2023-12-04T05:20:20;3.96;72.09
82788;DHT22;72529;51.786;4.662;2023-12-04T05:22:46;3.96;72.19
82788;DHT22;72529;51.786;4.662;2023-12-04T05:25:11;4.03;72.47
82788;DHT22;72529;51.786;4.662;2023-12-04T05:27:37;3.98;72.68
82788;DHT22;72529;51.786;4.662;2023-12-04T05:30:02;3.96;72.75
82788;DHT22;72529;51.786;4.662;2023-12-04T05:32:28;4.02;72.39
82788;DHT22;72529;51.786;4.662;2023-12-04T05:34:53;4.06;72.59
82788;DHT22;72529;51.786;4.662;2023-12-04T05:37:19;4.05;72.08
82788;DHT22;72529;51.786;4.662;2023-12-04T05:39:44;4.07;71.96
82788;DHT22;72529;51.786;4.662;2023-12-04T05:42:09;4.12;72.39
82788;DHT22;72529;51.786;4.662;2023-12-04T05:44:35;4.16;71.93
82788;DHT22;72529;51.786;4.662;2023-12-04T05:47:00;4.19;71.08
82788;DHT22;72529;51.786;4.662;2023-12-04T05:49:26;4.23;71.80
82788;DHT22;72529;51.786;4.662;2023-12-04T05:51:51;4.23;71.00
82788;DHT22;72529;51.786;4.662;2023-12-04T05:54:17;4.22;70.95
82788;DHT22;72529;51.786;4.662;2023-12-04T05:56:42;4.22;70.67
82788;DHT22;72529;51.786;4.662;2023-12-04T05:59:08;4.24;70.31
82788;DHT22;72529;51.786;4.662;2023-12-04T06:01:34;4.29;69.94
82788;DHT22;72529;51.786;4.662;2023-12-04T06:03:59;4.28;70.88
82788;DHT22;72529;51.786;4.662;2023-12-04T06:06:24;4.23;71.40
82788;DHT22;72529;51.786;4.662;2023-12-04T06:08:50;4.23;71.28
82788;DHT22;72529;51.786;4.662;2023-12-04T06:11:15;4.22;71.47
82788;DHT22;72529;51.786;4.662;2023-12-04T06:13:41;4.28;70.72
82788;DHT22;72529;51.786;4.662;2023-12-04T06:16:06;4.26;70.81
82788;DHT22;72529;51.786;4.662;2023-12-04T06:18:33;4.26;71.43
82788;DHT22;72529;51.786;4.662;2023-12-04T06:20:58;4.30;72.02
82788;DHT22;72529;51.786;4.662;2023-12-04T06:23:24;4.32;71.62
82788;DHT22;72529;51.786;4.662;2023-12-04T06:25:49;4.32;71.12
82788;DHT22;72529;51.786;4.662;2023-12-04T06:28:15;4.29;70.68
82788;DHT22;72529;51.786;4.662;2023-12-04T06:30:41;4.26;71.67
82788;DHT22;72529;51.786;4.662;2023-12-04T06:33:07;4.29;70.94
82788;DHT22;72529;51.786;4.662;2023-12-04T06:35:33;4.36;71.27
82788;DHT22;72529;51.786;4.662;2023-12-04T06:38:05;4.24;71.02
82788;DHT22;72529;51.786;4.662;2023-12-04T06:40:32;4.28;71.06
82788;DHT22;72529;51.786;4.662;2023-12-04T06:42:57;4.22;71.81
82788;DHT22;72529;51.786;4.662;2023-12-04T06:45:23;4.17;70.25
82788;DHT22;72529;51.786;4.662;2023-12-04T06:47:51;4.22;70.58
82788;DHT22;72529;51.786;4.662;2023-12-04T06:50:17;4.23;70.49
82788;DHT22;72529;51.786;4.662;2023-12-04T06:52:42;4.23;69.80
82788;DHT22;72529;51.786;4.662;2023-12-04T06:55:08;4.23;71.14
82788;DHT22;72529;51.786;4.662;2023-12-04T06:57:34;4.26;70.15
82788;DHT22;72529;51.786;4.662;2023-12-04T06:59:59;4.29;70.38
82788;DHT22;72529;51.786;4.662;2023-12-04T07:02:25;4.32;70.75
82788;DHT22;72529;51.786;4.662;2023-12-04T07:04:50;4.36;70.32
82788;DHT22;72529;51.786;4.662;2023-12-04T07:07:16;4.30;69.94
82788;DHT22;72529;51.786;4.662;2023-12-04T07:09:41;4.28;69.32
82788;DHT22;72529;51.786;4.662;2023-12-04T07:12:07;4.23;69.94
82788;DHT22;72529;51.786;4.662;2023-12-04T07:14:32;4.22;70.17
82788;DHT22;72529;51.786;4.662;2023-12-04T07:16:59;4.26;70.78
82788;DHT22;72529;51.786;4.662;2023-12-04T07:19:25;4.28;70.43
82788;DHT22;72529;51.786;4.662;2023-12-04T07:21:52;4.33;69.71
82788;DHT22;72529;51.786;4.662;2023-12-04T07:24:17;4.29;69.74
82788;DHT22;72529;51.786;4.662;2023-12-04T07:26:43;4.32;69.20
82788;DHT22;72529;51.786;4.662;2023-12-04T07:29:08;4.29;68.97
82788;DHT22;72529;51.786;4.662;2023-12-04T07:31:34;4.36;69.49
82788;DHT22;72529;51.786;4.662;2023-12-04T07:33:59;4.41;69.28
82788;DHT22;72529;51.786;4.662;2023-12-04T07:36:27;4.34;68.80
82788;DHT22;72529;51.786;4.662;2023-12-04T07:38:53;4.30;69.31
82788;DHT22;72529;51.786;4.662;2023-12-04T07:41:19;4.34;69.15
82788;DHT22;72529;51.786;4.662;2023-12-04T07:43:45;4.33;69.43
82788;DHT22;72529;51.786;4.662;2023-12-04T07:46:11;4.34;69.35
82788;DHT22;72529;51.786;4.662;2023-12-04T07:48:37;4.29;69.55
82788;DHT22;72529;51.786;4.662;2023-12-04T07:51:02;4.34;69.44
82788;DHT22;72529;51.786;4.662;2023-12-04T07:53:28;4.36;70.07
82788;DHT22;72529;51.786;4.662;2023-12-04T07:55:53;4.44;68.88
82788;DHT22;72529;51.786;4.662;2023-12-04T07:58:19;4.39;68.96
82788;DHT22;72529;51.786;4.662;2023-12-04T08:00:44;4.44;68.90
82788;DHT22;72529;51.786;4.662;2023-12-04T08:03:10;4.41;68.47
82788;DHT22;72529;51.786;4.662;2023-12-04T08:05:36;4.37;68.80
82788;DHT22;72529;51.786;4.662;2023-12-04T08:08:01;4.30;69.07
82788;DHT22;72529;51.786;4.662;2023-12-04T08:10:27;4.34;69.55
82788;DHT22;72529;51.786;4.662;2023-12-04T08:12:52;4.32;69.45
82788;DHT22;72529;51.786;4.662;2023-12-04T08:15:18;4.36;69.15
82788;DHT22;72529;51.786;4.662;2023-12-04T08:17:43;4.34;68.86
82788;DHT22;72529;51.786;4.662;2023-12-04T08:20:09;4.43;69.36
82788;DHT22;72529;51.786;4.662;2023-12-04T08:22:41;4.40;68.98
82788;DHT22;72529;51.786;4.662;2023-12-04T08:25:07;4.43;68.67
82788;DHT22;72529;51.786;4.662;2023-12-04T08:27:33;4.39;67.59
82788;DHT22;72529;51.786;4.662;2023-12-04T08:29:59;4.30;68.58
82788;DHT22;72529;51.786;4.662;2023-12-04T08:32:24;4.37;69.05
82788;DHT22;72529;51.786;4.662;2023-12-04T08:34:51;4.41;68.72
82788;DHT22;72529;51.786;4.662;2023-12-04T08:37:18;4.40;68.84
82788;DHT22;72529;51.786;4.662;2023-12-04T08:39:44;4.44;68.61
82788;DHT22;72529;51.786;4.662;2023-12-04T08:42:11;4.50;67.57
82788;DHT22;72529;51.786;4.662;2023-12-04T08:44:36;4.34;68.93
82788;DHT22;72529;51.786;4.662;2023-12-04T08:47:02;4.34;69.16
82788;DHT22;72529;51.786;4.662;2023-12-04T08:49:28;4.33;69.08
82788;DHT22;72529;51.786;4.662;2023-12-04T08:51:53;4.39;69.00
82788;DHT22;72529;51.786;4.662;2023-12-04T08:54:19;4.43;69.12
82788;DHT22;72529;51.786;4.662;2023-12-04T08:56:44;4.43;69.22
82788;DHT22;72529;51.786;4.662;2023-12-04T08:59:10;4.46;68.38
82788;DHT22;72529;51.786;4.662;2023-12-04T09:01:35;4.46;69.10
82788;DHT22;72529;51.786;4.662;2023-12-04T09:04:02;4.47;68.54
82788;DHT22;72529;51.786;4.662;2023-12-04T09:06:27;4.51;69.05
82788;DHT22;72529;51.786;4.662;2023-12-04T09:08:53;4.56;69.07
82788;DHT22;72529;51.786;4.662;2023-12-04T09:11:19;4.53;68.81
82788;DHT22;72529;51.786;4.662;2023-12-04T09:13:44;4.58;69.16
82788;DHT22;72529;51.786;4.662;2023-12-04T09:16:10;4.60;68.82
82788;DHT22;72529;51.786;4.662;2023-12-04T09:18:35;4.61;69.26
82788;DHT22;72529;51.786;4.662;2023-12-04T09:21:00;4.63;68.60
82788;DHT22;72529;51.786;4.662;2023-12-04T09:23:26;4.63;68.35
82788;DHT22;72529;51.786;4.662;2023-12-04T09:25:51;4.60;68.60
82788;DHT22;72529;51.786;4.662;2023-12-04T09:28:17;4.68;67.74
82788;DHT22;72529;51.786;4.662;2023-12-04T09:30:42;4.65;68.44
82788;DHT22;72529;51.786;4.662;2023-12-04T09:33:08;4.64;68.95
82788;DHT22;72529;51.786;4.662;2023-12-04T09:35:33;4.67;68.68
82788;DHT22;72529;51.786;4.662;2023-12-04T09:37:59;4.74;68.88
82788;DHT22;72529;51.786;4.662;2023-12-04T09:40:25;4.81;67.85
82788;DHT22;72529;51.786;4.662;2023-12-04T09:42:51;4.70;68.20
82788;DHT22;72529;51.786;4.662;2023-12-04T09:45:18;4.80;68.50
82788;DHT22;72529;51.786;4.662;2023-12-04T09:47:47;4.85;67.50
82788;DHT22;72529;51.786;4.662;2023-12-04T09:50:14;4.84;68.42
82788;DHT22;72529;51.786;4.662;2023-12-04T09:52:41;4.96;67.59
82788;DHT22;72529;51.786;4.662;2023-12-04T09:55:06;4.89;66.99
82788;DHT22;72529;51.786;4.662;2023-12-04T09:57:33;4.88;67.63
82788;DHT22;72529;51.786;4.662;2023-12-04T10:00:00;4.89;68.11
82788;DHT22;72529;51.786;4.662;2023-12-04T10:02:28;4.89;67.86
82788;DHT22;72529;51.786;4.662;2023-12-04T10:04:54;4.89;67.86
82788;DHT22;72529;51.786;4.662;2023-12-04T10:07:19;4.95;67.92
82788;DHT22;72529;51.786;4.662;2023-12-04T10:09:45;4.96;67.56
82788;DHT22;72529;51.786;4.662;2023-12-04T10:12:10;4.89;67.71
82788;DHT22;72529;51.786;4.662;2023-12-04T10:14:36;4.94;66.83
82788;DHT22;72529;51.786;4.662;2023-12-04T10:17:15;4.94;67.75
82788;DHT22;72529;51.786;4.662;2023-12-04T10:19:45;4.99;67.09
82788;DHT22;72529;51.786;4.662;2023-12-04T10:22:11;4.96;67.86
82788;DHT22;72529;51.786;4.662;2023-12-04T10:24:39;5.02;67.90
82788;DHT22;72529;51.786;4.662;2023-12-04T10:27:06;5.11;67.76
82788;DHT22;72529;51.786;4.662;2023-12-04T10:29:52;5.18;67.45
82788;DHT22;72529;51.786;4.662;2023-12-04T10:32:18;5.12;67.36
82788;DHT22;72529;51.786;4.662;2023-12-04T10:34:49;5.15;67.56
82788;DHT22;72529;51.786;4.662;2023-12-04T10:37:15;5.16;66.79
82788;DHT22;72529;51.786;4.662;2023-12-04T10:39:49;5.18;68.25
82788;DHT22;72529;51.786;4.662;2023-12-04T10:42:29;5.25;67.77
82788;DHT22;72529;51.786;4.662;2023-12-04T10:44:56;5.34;68.21
82788;DHT22;72529;51.786;4.662;2023-12-04T10:47:26;5.42;67.76
82788;DHT22;72529;51.786;4.662;2023-12-04T10:49:52;5.46;67.55
82788;DHT22;72529;51.786;4.662;2023-12-04T10:52:18;5.56;67.58
82788;DHT22;72529;51.786;4.662;2023-12-04T10:54:48;5.56;67.24
82788;DHT22;72529;51.786;4.662;2023-12-04T10:57:27;5.62;67.18
82788;DHT22;72529;51.786;4.662;2023-12-04T11:00:04;5.65;67.28
82788;DHT22;72529;51.786;4.662;2023-12-04T11:02:34;5.81;66.70
82788;DHT22;72529;51.786;4.662;2023-12-04T11:05:13;5.73;66.36
82788;DHT22;72529;51.786;4.662;2023-12-04T11:07:44;5.62;66.63
82788;DHT22;72529;51.786;4.662;2023-12-04T11:10:12;5.60;66.06
82788;DHT22;72529;51.786;4.662;2023-12-04T11:12:44;5.59;66.49
82788;DHT22;72529;51.786;4.662;2023-12-04T11:15:16;5.58;66.58
82788;DHT22;72529;51.786;4.662;2023-12-04T11:17:49;5.48;67.76
82788;DHT22;72529;51.786;4.662;2023-12-04T11:20:24;5.40;67.72
82788;DHT22;72529;51.786;4.662;2023-12-04T11:22:51;5.48;68.36
82788;DHT22;72529;51.786;4.662;2023-12-04T11:25:17;5.52;67.58
82788;DHT22;72529;51.786;4.662;2023-12-04T11:27:44;5.43;68.13
82788;DHT22;72529;51.786;4.662;2023-12-04T11:30:10;5.40;67.00
82788;DHT22;72529;51.786;4.662;2023-12-04T11:32:49;5.45;68.12
82788;DHT22;72529;51.786;4.662;2023-12-04T11:35:15;5.39;67.98
82788;DHT22;72529;51.786;4.662;2023-12-04T11:37:42;5.45;68.67
82788;DHT22;72529;51.786;4.662;2023-12-04T11:40:11;5.49;69.69
82788;DHT22;72529;51.786;4.662;2023-12-04T11:42:37;5.56;69.81
82788;DHT22;72529;51.786;4.662;2023-12-04T11:45:05;5.48;70.35
82788;DHT22;72529;51.786;4.662;2023-12-04T11:47:31;5.39;70.45
82788;DHT22;72529;51.786;4.662;2023-12-04T11:50:13;5.34;71.38
82788;DHT22;72529;51.786;4.662;2023-12-04T11:52:38;5.38;72.44
82788;DHT22;72529;51.786;4.662;2023-12-04T11:55:05;5.43;71.52
82788;DHT22;72529;51.786;4.662;2023-12-04T11:57:38;5.43;71.57
82788;DHT22;72529;51.786;4.662;2023-12-04T12:05:17;5.43;72.08
82788;DHT22;72529;51.786;4.662;2023-12-04T12:07:43;5.45;71.95
82788;DHT22;72529;51.786;4.662;2023-12-04T12:10:09;5.32;71.82
82788;DHT22;72529;51.786;4.662;2023-12-04T12:12:37;5.36;71.84
82788;DHT22;72529;51.786;4.662;2023-12-04T12:15:03;5.39;72.38
82788;DHT22;72529;51.786;4.662;2023-12-04T12:17:28;5.39;72.82
82788;DHT22;72529;51.786;4.662;2023-12-04T12:19:54;5.31;72.22
82788;DHT22;72529;51.786;4.662;2023-12-04T12:22:22;5.34;72.78
82788;DHT22;72529;51.786;4.662;2023-12-04T12:24:47;5.28;72.64
82788;DHT22;72529;51.786;4.662;2023-12-04T12:27:13;5.35;72.41
82788;DHT22;72529;51.786;4.662;2023-12-04T12:29:38;5.31;73.60
82788;DHT22;72529;51.786;4.662;2023-12-04T12:32:04;5.40;73.61
82788;DHT22;72529;51.786;4.662;2023-12-04T12:34:29;5.50;72.95
82788;DHT22;72529;51.786;4.662;2023-12-04T12:36:57;5.45;73.47
82788;DHT22;72529;51.786;4.662;2023-12-04T12:39:22;5.40;73.66
82788;DHT22;72529;51.786;4.662;2023-12-04T12:41:49;5.46;73.20
82788;DHT22;72529;51.786;4.662;2023-12-04T12:44:15;5.40;73.54
82788;DHT22;72529;51.786;4.662;2023-12-04T12:46:41;5.46;73.84
82788;DHT22;72529;51.786;4.662;2023-12-04T12:49:06;5.39;74.30
82788;DHT22;72529;51.786;4.662;2023-12-04T12:51:32;5.50;74.25
82788;DHT22;72529;51.786;4.662;2023-12-04T12:53:58;5.49;74.56
82788;DHT22;72529;51.786;4.662;2023-12-04T12:56:25;5.52;74.58
82788;DHT22;72529;51.786;4.662;2023-12-04T12:58:50;5.46;75.22
82788;DHT22;72529;51.786;4.662;2023-12-04T13:01:17;5.42;74.76
82788;DHT22;72529;51.786;4.662;2023-12-04T13:03:45;5.31;75.33
82788;DHT22;72529;51.786;4.662;2023-12-04T13:06:11;5.35;74.78
82788;DHT22;72529;51.786;4.662;2023-12-04T13:08:37;5.34;75.49
82788;DHT22;72529;51.786;4.662;2023-12-04T13:11:02;5.39;74.96
82788;DHT22;72529;51.786;4.662;2023-12-04T13:13:29;5.35;75.06
82788;DHT22;72529;51.786;4.662;2023-12-04T13:15:55;5.31;75.17
82788;DHT22;72529;51.786;4.662;2023-12-04T13:18:20;5.39;75.20
82788;DHT22;72529;51.786;4.662;2023-12-04T13:20:46;5.34;75.27
82788;DHT22;72529;51.786;4.662;2023-12-04T13:23:11;5.39;74.34
82788;DHT22;72529;51.786;4.662;2023-12-04T13:25:36;5.26;75.14
82788;DHT22;72529;51.786;4.662;2023-12-04T13:28:02;5.31;75.35
82788;DHT22;72529;51.786;4.662;2023-12-04T13:30:27;5.34;74.85
82788;DHT22;72529;51.786;4.662;2023-12-04T13:32:53;5.22;74.96
82788;DHT22;72529;51.786;4.662;2023-12-04T13:35:19;5.21;75.30
82788;DHT22;72529;51.786;4.662;2023-12-04T13:37:44;5.15;75.56
82788;DHT22;72529;51.786;4.662;2023-12-04T13:40:11;5.18;75.81
82788;DHT22;72529;51.786;4.662;2023-12-04T13:42:42;5.22;75.57
82788;DHT22;72529;51.786;4.662;2023-12-04T13:45:26;5.25;75.06
82788;DHT22;72529;51.786;4.662;2023-12-04T13:47:51;5.25;75.17
82788;DHT22;72529;51.786;4.662;2023-12-04T13:50:18;5.29;75.19
82788;DHT22;72529;51.786;4.662;2023-12-04T13:52:44;5.16;75.77
82788;DHT22;72529;51.786;4.662;2023-12-04T13:55:09;5.19;75.61
82788;DHT22;72529;51.786;4.662;2023-12-04T13:57:58;5.16;76.32
82788;DHT22;72529;51.786;4.662;2023-12-04T14:00:24;5.19;76.16
82788;DHT22;72529;51.786;4.662;2023-12-04T14:02:50;5.21;76.39
82788;DHT22;72529;51.786;4.662;2023-12-04T14:05:19;5.19;76.80
82788;DHT22;72529;51.786;4.662;2023-12-04T14:07:47;5.21;77.24
82788;DHT22;72529;51.786;4.662;2023-12-04T14:10:12;5.16;77.67
82788;DHT22;72529;51.786;4.662;2023-12-04T14:12:40;5.15;77.86
82788;DHT22;72529;51.786;4.662;2023-12-04T14:15:06;5.18;78.18
82788;DHT22;72529;51.786;4.662;2023-12-04T14:17:31;5.09;78.49
82788;DHT22;72529;51.786;4.662;2023-12-04T14:19:57;5.12;78.48
82788;DHT22;72529;51.786;4.662;2023-12-04T14:22:22;4.94;78.81
82788;DHT22;72529;51.786;4.662;2023-12-04T14:24:47;4.92;79.47
82788;DHT22;72529;51.786;4.662;2023-12-04T14:27:13;4.98;79.45
82788;DHT22;72529;51.786;4.662;2023-12-04T14:29:39;4.92;79.41
82788;DHT22;72529;51.786;4.662;2023-12-04T14:32:05;4.85;79.63
82788;DHT22;72529;51.786;4.662;2023-12-04T14:34:31;4.84;79.58
82788;DHT22;72529;51.786;4.662;2023-12-04T14:36:58;4.78;79.85
82788;DHT22;72529;51.786;4.662;2023-12-04T14:39:24;4.70;79.98
82788;DHT22;72529;51.786;4.662;2023-12-04T14:41:49;4.68;80.19
82788;DHT22;72529;51.786;4.662;2023-12-04T14:44:16;4.70;80.33
82788;DHT22;72529;51.786;4.662;2023-12-04T14:46:41;4.78;80.53
82788;DHT22;72529;51.786;4.662;2023-12-04T14:49:07;4.65;80.40
82788;DHT22;72529;51.786;4.662;2023-12-04T14:51:32;4.67;80.79
82788;DHT22;72529;51.786;4.662;2023-12-04T14:53:58;4.77;80.17
82788;DHT22;72529;51.786;4.662;2023-12-04T14:56:43;4.68;80.64
82788;DHT22;72529;51.786;4.662;2023-12-04T14:59:20;4.67;80.66
82788;DHT22;72529;51.786;4.662;2023-12-04T15:01:48;4.65;80.87
82788;DHT22;72529;51.786;4.662;2023-12-04T15:04:22;4.57;81.15
82788;DHT22;72529;51.786;4.662;2023-12-04T15:07:08;4.57;81.06
82788;DHT22;72529;51.786;4.662;2023-12-04T15:09:42;4.56;81.33
82788;DHT22;72529;51.786;4.662;2023-12-04T15:12:26;4.50;81.71
82788;DHT22;72529;51.786;4.662;2023-12-04T15:15:20;4.46;81.79
82788;DHT22;72529;51.786;4.662;2023-12-04T15:18:24;4.51;82.09
82788;DHT22;72529;51.786;4.662;2023-12-04T15:21:02;4.60;81.56
82788;DHT22;72529;51.786;4.662;2023-12-04T15:23:28;4.57;81.73
82788;DHT22;72529;51.786;4.662;2023-12-04T15:25:53;4.61;81.39
82788;DHT22;72529;51.786;4.662;2023-12-04T15:28:18;4.47;81.43
82788;DHT22;72529;51.786;4.662;2023-12-04T15:30:44;4.53;81.53
82788;DHT22;72529;51.786;4.662;2023-12-04T15:33:10;4.49;81.77
82788;DHT22;72529;51.786;4.662;2023-12-04T15:35:36;4.40;81.99
82788;DHT22;72529;51.786;4.662;2023-12-04T15:38:03;4.41;82.23
82788;DHT22;72529;51.786;4.662;2023-12-04T15:40:28;4.46;81.91
82788;DHT22;72529;51.786;4.662;2023-12-04T15:42:55;4.43;81.89
82788;DHT22;72529;51.786;4.662;2023-12-04T15:45:20;4.39;82.01
82788;DHT22;72529;51.786;4.662;2023-12-04T15:47:46;4.32;82.09